Terminal Aerodrome Forecast
Issued by NWS

Home | Current Version | Previous Version | Text Only | Print | Product List | Glossary On
Versions: 1 2 3 4 5 6 7 8 9 10 11 12 13 14 15 16
000
FTUS45 KVEF 191700
TAFBIH
TAF
KBIH 191720Z 1918/2018 34003KT P6SM SCT030 BKN200
      TEMPO 1918/1919 BKN030
     FM192000 18005KT P6SM BKN200
     FM200200 31003KT P6SM SCT140 BKN200
     FM201200 VRB05KT P6SM BKN140 OVC200=

USA.gov is the U.S. government's official web portal to all federal, state and local government web resources and services.